Terminal Aerodrome Forecast
Issued by NWS

Home | Current Version | Previous Version | Text Only | Print | Product List | Glossary On
Versions: 1 2 3 4 5 6 7 8 9 10 11 12 13 14 15 16 17 18 19 20 21 22 23 24 25 26
000
FTUS43 KGLD 250542
TAFMCK
TAF
KMCK 250542Z 2506/2606 15012KT P6SM SKC WS003/18040KT
     FM251300 13007KT P6SM FEW200
     FM251700 VRB03KT P6SM FEW200
     FM252300 04010KT P6SM VCTS SCT090CB BKN200
     FM260300 36009KT P6SM BKN150=

USA.gov is the U.S. government's official web portal to all federal, state and local government web resources and services.